メインページ
METAR-TAF:

METAR-TAF

空港 :

ムルマンスク, ロシア

緯度: 68-58N, 経度: 033-03E, 海抜: 51m

現時点の気象観測

当レポートは23分前の06:30(UTC)に作成
変向風 2kt
気温 -4°C
湿度 74%
気圧 1025 hPa
視程10km以上
1,500メートル以下は雲なし、積乱雲なし

METAR: ULMM 130630Z VRB01MPS CAVOK M04/M08 Q1025 R31/320053 NOSIG RMK QFE761

時間: 09:53 (06:53 UTC)

予報

当レポートは2時間3分前の04:50(UTC)に作成
予報は13日の 06時(UTC)から 14日の 06時(UTC)まで有効
西/南西の風 6kt
視程10km以上
高度1200ftの千切れ雲あり
13日の 06時(UTC)から 13日の 09時(UTC)まで一時的に
変向風 2kt
視程: 3100m
高度400ftの雲は散在している
高度1100ftの千切れ雲あり
13日の 09時(UTC)から 14日の 06時(UTC)まで一時的に
西の風 6kt
視程: 5000m
高度1200ftの千切れ雲あり, 積乱雲.
弱いにわか雪

TAF: ULMM 130450Z 1306/1406 24003MPS 9999 BKN012 TEMPO 1306/1309 VRB01MPS 3100 BR SCT004 BKN011 TEMPO 1309/1406 27003MPS 5000 -SHSN BKN012CB

4,000以上の空港の気象観測と天気予報(METAR報とTAF報)

利用可能な観測所は地図上に黄色い丸と赤い丸で示す。

丸の上にカーソルを重ねると観測所名を参照できる。

次にクリックすると気象観測と天気予報を参照できる。

マップの切り替え:黒色「×」印の緑ボタンをクリックして拡大、「-」印の緑ボタンをクリックして縮小、緑色の三角印をクリックして隣りの地図に切り替え


METAR-TAF: